Desert Springs, Nevada Weather observations

Data are for 10 minute period ending at time listed.
 Day   Time    Ave.   Ave.  Ave.  Vector   Max.   Total    Solar   
  of    of     Air    Rel.  Wind   Wind    Wind  Precip.   Rad.    
Year   Day     Temp.  Hum.  Speed  Dir.    Gust                    
2015   (PST)    F      %     mph   deg.    mph     in.     W/m2    
------------------------------------------------------------------- 
 141   20:00   46.0    94    1.0   115      6.0    2.99       2  
 141   21:00   44.0    96    5.0    31      7.0    3.02       0  
 141   22:00   45.0    96    0.0   137      6.0    3.03       0  
 141   23:00   45.0    97    4.0   265      5.0    3.03       0  
 142    0:00   45.0    97    0.0   124      4.0    3.03       0  
 142    1:00   46.0    94    1.0   247      4.0    3.03       0  
 142    2:00   46.0    94    2.0   295      4.0    3.03       0  
 142    3:00   45.0    93    4.0    25      8.0    3.03       0  
 142    4:00   44.0    91    4.0    30      7.0    3.03       0  
 142    5:00   44.0    92    5.0     7      8.0    3.03       0  
 142    6:00   45.0    88    1.0   339      7.0    3.03      13  
 142    7:00   46.0    90    0.0   325      4.0    3.03      36  
 142    8:00   47.0    91    3.0   291      5.0    3.03      73  
 142    9:00   48.0    90    6.0   268      8.0    3.05     141  
 142   10:00   51.0    78    3.0   294      7.0    3.05     334  
 142   11:00   54.0    73    2.0   300      8.0    3.05     389  
 142   12:00   57.0    62    5.0   308     11.0    3.05     743  
 142   13:00   59.0    53   10.0   309     17.0    3.05     617  
 142   14:00   58.0    55    5.0    84     19.0    3.05     805  
 142   15:00   54.0    77    8.0   116     12.0    3.11     200  
 142   16:00   60.0    48   10.0   336     19.0    3.11     368  
 142   17:00   57.0    54   13.0   347     23.0    3.11     211  
 142   18:00   49.0    90   22.0   277     28.0    3.12      28  
 142   19:00   47.0    95   13.0   251     30.0    3.15       6  

Return to Desert Springs, Nevada graphs page.


Western Regional Climate Center,wrcc@dri.edu